Terminal Aerodrome Forecast
Issued by NWS Buffalo, NY

Home | Current Version | Previous Version | Text Only | Print | Product List | Glossary On
Versions: 1 2 3 4 5 6 7 8 9 10 11 12 13 14 15 16 17 18 19 20 21 22 23 24 25
000
FTUS41 KBUF 041121
TAFART
TAF
KART 041121Z 0412/0512 34008KT P6SM BKN025
      TEMPO 0412/0415 BKN035
     FM041500 36006KT P6SM BKN035
     FM041900 34004KT P6SM SCT060
     FM050200 VRB03KT P6SM BKN250
     FM050600 13004KT P6SM VCSH OVC050
     FM050900 11005KT 2SM -SN OVC025=

USA.gov is the U.S. government's official web portal to all federal, state and local government web resources and services.